Time;durP1;ratioP1;P1;durP2;ratioP2;P2;SDS_P1;SDS_P2;PMS_P1;PMS_P2;Temp;Humidity;BMP_temperature;BMP_pressure;BME280_temperature;BME280_humidity;BME280_pressure;Samples;Min_cycle;Max_cycle;Signal;HPM_P1;HPM_P2
2022/01/16 03:39:48;;;;;;;;;;;2.50;99.90;;;;;;5131115;27;19911;-73
2022/01/16 03:42:14;;;;;;;;;;;2.40;99.90;;;;;;5130516;28;19918;-73
2022/01/16 03:44:39;;;;;;;;;;;2.50;99.90;;;;;;5113003;28;19914;-73
2022/01/16 03:47:05;;;;;;;;;;;2.60;99.90;;;;;;5130705;28;20002;-73
2022/01/16 03:49:31;;;;;;;;;;;2.70;99.90;;;;;;5131406;28;19908;-73
2022/01/16 03:51:58;;;;;;;;;;;2.70;99.90;;;;;;5130609;28;19949;-72
2022/01/16 03:54:27;;;;;;;;;;;2.50;99.90;;;;;;5130962;28;19951;-74
2022/01/16 03:56:53;;;;;;;;;;;2.50;99.90;;;;;;5112154;28;20279;-73
2022/01/16 03:59:19;;;;;;;;;;;2.50;99.90;;;;;;5131127;28;19972;-73
2022/01/16 04:01:44;;;;;;;;;;;2.60;99.90;;;;;;5131120;28;19952;-73
2022/01/16 04:04:10;;;;;;;;;;;2.40;99.90;;;;;;5130416;28;20346;-73
2022/01/16 04:06:35;;;;;;;;;;;2.50;99.90;;;;;;5130986;28;19930;-73
2022/01/16 04:09:02;;;;;;;;;;;2.50;99.90;;;;;;5130431;28;19972;-73
2022/01/16 04:11:28;;;;;;;;;;;2.60;99.90;;;;;;5130684;28;19908;-74
2022/01/16 04:14:06;;;;;;;;;;;2.50;99.90;;;;;;5130285;28;19908;-73
2022/01/16 04:16:32;;;;;;;;;;;2.60;99.90;;;;;;5130951;28;19947;-74
2022/01/16 04:18:57;;;;;;;;;;;2.70;99.90;;;;;;5129954;28;19970;-73
2022/01/16 04:21:24;;;;;;;;;;;2.70;99.90;;;;;;5130844;28;19907;-74
2022/01/16 04:23:50;;;;;;;;;;;2.80;99.90;;;;;;5130725;28;19908;-74
2022/01/16 04:26:16;;;;;;;;;;;2.70;99.90;;;;;;5129626;28;20363;-73
2022/01/16 04:28:42;;;;;;;;;;;2.60;99.90;;;;;;5130657;28;20261;-73
2022/01/16 04:31:08;;;;;;;;;;;2.70;99.90;;;;;;5129549;28;19915;-73
2022/01/16 04:33:34;;;;;;;;;;;2.70;99.90;;;;;;5130790;28;19908;-73
2022/01/16 04:35:59;;;;;;;;;;;2.70;99.90;;;;;;5130132;28;19907;-72
2022/01/16 04:38:25;;;;;;;;;;;2.70;99.90;;;;;;5129751;28;19924;-72
2022/01/16 04:43:53;;;;;;;;;;;2.70;99.90;;;;;;5130068;28;19914;-72
2022/01/16 04:46:19;;;;;;;;;;;2.70;99.90;;;;;;5129953;28;20348;-72
2022/01/16 04:48:45;;;;;;;;;;;2.70;99.90;;;;;;5128457;28;20244;-72
2022/01/16 04:51:10;;;;;;;;;;;2.70;99.90;;;;;;5115493;28;20431;-72
2022/01/16 04:53:36;;;;;;;;;;;2.70;99.90;;;;;;5098066;28;19960;-72
2022/01/16 04:56:02;;;;;;;;;;;2.80;99.90;;;;;;5115701;28;19918;-72
2022/01/16 04:58:28;;;;;;;;;;;2.80;99.90;;;;;;5116238;28;20343;-72
2022/01/16 05:00:54;;;;;;;;;;;2.80;99.90;;;;;;5098007;28;19912;-72
2022/01/16 05:03:20;;;;;;;;;;;2.90;99.90;;;;;;5115312;28;19968;-72
2022/01/16 05:05:46;;;;;;;;;;;2.90;99.90;;;;;;5116221;28;19908;-72
2022/01/16 05:08:11;;;;;;;;;;;2.80;99.90;;;;;;5115575;28;19920;-72
2022/01/16 05:10:37;;;;;;;;;;;2.70;99.90;;;;;;5115951;28;20388;-72
2022/01/16 05:18:37;;;;;;;;;;;2.90;99.90;;;;;;5115555;28;19937;-72
2022/01/16 05:21:03;;;;;;;;;;;2.90;99.90;;;;;;5115298;28;19918;-72
2022/01/16 05:23:29;;;;;;;;;;;2.80;99.90;;;;;;5115886;28;20338;-72
2022/01/16 05:25:54;;;;;;;;;;;2.90;99.90;;;;;;5115775;28;19908;-72
2022/01/16 05:28:20;;;;;;;;;;;3.00;99.90;;;;;;5115152;28;20011;-73
2022/01/16 05:30:46;;;;;;;;;;;2.90;99.90;;;;;;5097560;28;20356;-72
2022/01/16 05:33:11;;;;;;;;;;;3.00;99.90;;;;;;5115010;28;19932;-72
2022/01/16 05:35:37;;;;;;;;;;;3.00;99.90;;;;;;5115266;28;19908;-72
2022/01/16 05:38:03;;;;;;;;;;;3.00;99.90;;;;;;5114633;28;20010;-72
2022/01/16 05:40:28;;;;;;;;;;;3.00;99.90;;;;;;5115352;28;19911;-72
2022/01/16 05:42:55;;;;;;;;;;;3.00;99.90;;;;;;5096853;28;20393;-72
2022/01/16 05:45:21;;;;;;;;;;;3.00;99.90;;;;;;5114741;28;19950;-72
2022/01/16 05:47:46;;;;;;;;;;;3.00;99.90;;;;;;5115176;28;20379;-72
2022/01/16 05:50:13;;;;;;;;;;;3.10;99.90;;;;;;5114678;28;19911;-72
2022/01/16 05:52:39;;;;;;;;;;;3.10;99.90;;;;;;5115307;28;19908;-72
2022/01/16 05:55:05;;;;;;;;;;;3.10;99.90;;;;;;5114663;28;19931;-72
2022/01/16 05:57:31;;;;;;;;;;;;;;;;;;5096375;28;19916;-72
2022/01/16 05:59:58;;;;;;;;;;;3.10;99.90;;;;;;5115125;28;19908;-72
2022/01/16 06:02:25;;;;;;;;;;;3.20;99.90;;;;;;5095730;28;20281;-73
2022/01/16 06:04:50;;;;;;;;;;;3.20;99.90;;;;;;5115179;28;20287;-73
2022/01/16 06:07:16;;;;;;;;;;;3.20;99.90;;;;;;5114346;28;19908;-73
2022/01/16 06:09:41;;;;;;;;;;;3.20;99.90;;;;;;5114917;28;19915;-74
2022/01/16 06:12:07;;;;;;;;;;;3.20;99.90;;;;;;5114140;28;19915;-74
2022/01/16 06:14:33;;;;;;;;;;;3.30;99.90;;;;;;5114846;28;20309;-74
2022/01/16 06:16:58;;;;;;;;;;;3.30;99.90;;;;;;5114786;28;19914;-74
2022/01/16 06:19:24;;;;;;;;;;;3.30;99.90;;;;;;5113997;28;19982;-73
2022/01/16 06:21:49;;;;;;;;;;;3.30;99.90;;;;;;5114629;28;19914;-73
2022/01/16 06:24:15;;;;;;;;;;;3.30;99.90;;;;;;5114296;28;19925;-74
2022/01/16 06:26:40;;;;;;;;;;;3.40;99.90;;;;;;5114521;28;19911;-74
2022/01/16 06:29:06;;;;;;;;;;;3.40;99.90;;;;;;5113946;28;19947;-74
2022/01/16 06:31:32;;;;;;;;;;;3.30;99.90;;;;;;5114631;28;19911;-73
2022/01/16 06:34:02;;;;;;;;;;;3.30;99.90;;;;;;5114365;28;19908;-73
2022/01/16 06:36:28;;;;;;;;;;;3.30;99.90;;;;;;5114485;28;19908;-73
2022/01/16 06:38:54;;;;;;;;;;;3.30;99.90;;;;;;5113883;28;19931;-74
2022/01/16 06:41:20;;;;;;;;;;;3.40;99.90;;;;;;5113599;28;19911;-73
2022/01/16 06:43:46;;;;;;;;;;;3.40;99.90;;;;;;5114126;28;20310;-73
2022/01/16 06:46:11;;;;;;;;;;;3.40;99.90;;;;;;5113541;28;20260;-73
2022/01/16 06:48:37;;;;;;;;;;;3.40;99.90;;;;;;5114542;28;19908;-74
2022/01/16 06:51:03;;;;;;;;;;;3.40;99.90;;;;;;5095152;28;19939;-72
2022/01/16 06:53:29;;;;;;;;;;;3.40;99.90;;;;;;5096187;28;19957;-73
2022/01/16 06:55:54;;;;;;;;;;;3.40;99.90;;;;;;5113689;28;19912;-74
2022/01/16 06:58:20;;;;;;;;;;;3.40;99.90;;;;;;5113019;28;19931;-73
2022/01/16 07:00:47;;;;;;;;;;;3.40;99.90;;;;;;5113941;28;19960;-73
2022/01/16 07:03:13;;;;;;;;;;;3.40;99.90;;;;;;5113603;28;19912;-73
2022/01/16 07:05:40;;;;;;;;;;;3.40;99.90;;;;;;5113902;28;19915;-73
2022/01/16 07:08:05;;;;;;;;;;;3.40;99.90;;;;;;5112798;28;20348;-72
2022/01/16 07:10:31;;;;;;;;;;;3.40;99.90;;;;;;5113583;28;19947;-73
2022/01/16 07:12:56;;;;;;;;;;;3.40;99.90;;;;;;5094978;28;19947;-73
2022/01/16 07:15:22;;;;;;;;;;;3.40;99.90;;;;;;5112881;28;19958;-74
2022/01/16 07:17:47;;;;;;;;;;;3.40;99.90;;;;;;5113348;28;19916;-74
2022/01/16 07:20:15;;;;;;;;;;;3.40;99.90;;;;;;5112977;28;19915;-73
2022/01/16 07:22:40;;;;;;;;;;;3.40;99.90;;;;;;5113633;28;19962;-73
2022/01/16 07:25:06;;;;;;;;;;;3.40;99.90;;;;;;5113046;28;19908;-72
2022/01/16 07:27:32;;;;;;;;;;;;;;;;;;5113547;28;19969;-71
2022/01/16 07:29:58;;;;;;;;;;;3.40;99.90;;;;;;5113639;28;20360;-73
2022/01/16 07:32:24;;;;;;;;;;;3.40;99.90;;;;;;5113008;28;19998;-78
2022/01/16 07:34:49;;;;;;;;;;;3.50;99.90;;;;;;5113470;28;19958;-73
2022/01/16 07:37:15;;;;;;;;;;;3.50;99.90;;;;;;5112550;28;19914;-76
2022/01/16 07:39:40;;;;;;;;;;;3.50;99.90;;;;;;5113597;28;20416;-69
2022/01/16 07:42:06;;;;;;;;;;;3.50;99.90;;;;;;5099540;28;19912;-74
2022/01/16 07:44:32;;;;;;;;;;;3.40;99.90;;;;;;5093005;28;19951;-76
2022/01/16 07:46:57;;;;;;;;;;;3.50;99.90;;;;;;5092767;28;19908;-73
2022/01/16 07:49:23;;;;;;;;;;;3.40;99.90;;;;;;5092423;28;19908;-75
2022/01/16 07:51:48;;;;;;;;;;;;;;;;;;5105702;28;19933;-74
2022/01/16 07:54:14;;;;;;;;;;;;;;;;;;5088998;28;19937;-77
2022/01/16 07:56:40;;;;;;;;;;;;;;;;;;5089445;28;19908;-76
2022/01/16 07:59:06;;;;;;;;;;;;;;;;;;5070758;28;20383;-75
2022/01/16 08:01:32;;;;;;;;;;;;;;;;;;5071276;28;20038;-76
2022/01/16 08:03:58;;;;;;;;;;;;;;;;;;5089306;28;19919;-75
2022/01/16 08:06:25;;;;;;;;;;;;;;;;;;5088689;28;19919;-75
2022/01/16 08:08:51;;;;;;;;;;;3.60;99.90;;;;;;5089001;28;20372;-76
2022/01/16 08:11:17;;;;;;;;;;;;;;;;;;5095152;28;19912;-78
2022/01/16 08:13:43;;;;;;;;;;;;;;;;;;5109572;28;19915;-83
2022/01/16 08:16:09;;;;;;;;;;;;;;;;;;5108722;28;19916;-82
2022/01/16 08:18:35;;;;;;;;;;;;;;;;;;5109238;28;19923;-83
2022/01/16 08:21:00;;;;;;;;;;;3.60;99.90;;;;;;5109659;28;19911;-84
2022/01/16 08:23:26;;;;;;;;;;;;;;;;;;5108489;28;19915;-83
2022/01/16 08:25:52;;;;;;;;;;;;;;;;;;5112593;28;19959;-80
2022/01/16 08:28:18;;;;;;;;;;;;;;;;;;5112528;28;19918;-82
2022/01/16 08:30:44;;;;;;;;;;;;;;;;;;5113591;28;19955;-84
2022/01/16 08:33:09;;;;;;;;;;;3.70;99.90;;;;;;5112597;28;19912;-83
2022/01/16 08:35:35;;;;;;;;;;;;;;;;;;5113652;28;19974;-82
2022/01/16 08:38:01;;;;;;;;;;;;;;;;;;5112930;28;19928;-73
2022/01/16 08:40:27;;;;;;;;;;;3.80;99.90;;;;;;5111901;28;19999;-80
2022/01/16 08:42:53;;;;;;;;;;;;;;;;;;5112978;28;20367;-78
2022/01/16 08:45:19;;;;;;;;;;;;;;;;;;5112577;28;20474;-79
2022/01/16 08:47:44;;;;;;;;;;;;;;;;;;5113008;28;20007;-80
2022/01/16 08:50:10;;;;;;;;;;;;;;;;;;5112387;28;19912;-80
2022/01/16 08:52:36;;;;;;;;;;;3.90;99.90;;;;;;5112498;28;20263;-77
2022/01/16 08:55:02;;;;;;;;;;;;;;;;;;5094537;28;19920;-79
2022/01/16 08:57:28;;;;;;;;;;;3.80;99.90;;;;;;5093918;28;19912;-81
2022/01/16 08:59:54;;;;;;;;;;;4.00;99.90;;;;;;5094440;28;19912;-75
2022/01/16 09:02:20;;;;;;;;;;;;;;;;;;5112478;28;20340;-77
2022/01/16 09:04:45;;;;;;;;;;;;;;;;;;5112405;28;19908;-76
2022/01/16 09:07:11;;;;;;;;;;;;;;;;;;5112079;28;19915;-74
2022/01/16 09:09:37;;;;;;;;;;;;;;;;;;5112884;28;20287;-78
2022/01/16 09:12:03;;;;;;;;;;;4.10;99.90;;;;;;5113074;28;20007;-78
2022/01/16 09:14:28;;;;;;;;;;;4.10;99.90;;;;;;5114125;28;20271;-79
2022/01/16 09:16:54;;;;;;;;;;;4.00;99.90;;;;;;5115236;28;19907;-78
2022/01/16 09:19:19;;;;;;;;;;;4.10;99.90;;;;;;5114661;28;20419;-84
2022/01/16 09:21:45;;;;;;;;;;;4.10;99.90;;;;;;5115408;28;19915;-79
2022/01/16 09:24:11;;;;;;;;;;;;;;;;;;5115399;28;20375;-79
2022/01/16 09:26:36;;;;;;;;;;;4.00;99.90;;;;;;5114784;28;19907;-80
2022/01/16 09:29:02;;;;;;;;;;;4.10;99.90;;;;;;5115296;28;19919;-83
2022/01/16 09:31:28;;;;;;;;;;;4.10;99.90;;;;;;5096044;28;19908;-82
2022/01/16 09:33:54;;;;;;;;;;;4.00;99.90;;;;;;5115507;28;19907;-78
2022/01/16 09:36:21;;;;;;;;;;;4.10;99.90;;;;;;5113970;28;20343;-81
2022/01/16 09:38:46;;;;;;;;;;;4.00;99.90;;;;;;5114581;28;19924;-85
2022/01/16 09:41:12;;;;;;;;;;;;;;;;;;5109644;28;19919;-80
2022/01/16 09:43:38;;;;;;;;;;;4.10;99.90;;;;;;5075926;28;19909;-79
2022/01/16 09:46:04;;;;;;;;;;;4.10;99.90;;;;;;5094283;28;19908;-76
2022/01/16 09:48:29;;;;;;;;;;;4.10;99.90;;;;;;5093749;28;19908;-76
2022/01/16 09:50:55;;;;;;;;;;;4.10;99.90;;;;;;5076421;28;19915;-79
2022/01/16 09:53:21;;;;;;;;;;;4.10;99.90;;;;;;5093478;28;19912;-79
2022/01/16 09:55:46;;;;;;;;;;;4.10;99.90;;;;;;5094441;28;19931;-79
2022/01/16 09:58:12;;;;;;;;;;;4.10;99.90;;;;;;5094525;28;19920;-76
2022/01/16 10:00:38;;;;;;;;;;;;;;;;;;5093207;28;19915;-77
2022/01/16 10:03:05;;;;;;;;;;;4.20;99.90;;;;;;5094334;28;20373;-77
2022/01/16 10:05:31;;;;;;;;;;;;;;;;;;5109031;28;19964;-74
2022/01/16 10:07:57;;;;;;;;;;;;;;;;;;5103863;28;20007;-78
2022/01/16 10:10:22;;;;;;;;;;;;;;;;;;5099097;28;20399;-78
2022/01/16 10:12:54;;;;;;;;;;;;;;;;;;5099562;28;19911;-80
2022/01/16 10:15:20;;;;;;;;;;;4.30;99.90;;;;;;5084473;28;19959;-81
2022/01/16 10:17:46;;;;;;;;;;;4.30;99.90;;;;;;5102351;28;19964;-81
2022/01/16 10:20:14;;;;;;;;;;;4.30;99.90;;;;;;5084853;28;19919;-75
2022/01/16 10:22:47;;;;;;;;;;;4.40;99.90;;;;;;5104049;28;20267;-77
2022/01/16 10:25:13;;;;;;;;;;;4.20;99.90;;;;;;5103573;28;19956;-75
2022/01/16 10:27:39;;;;;;;;;;;;;;;;;;5104487;28;19924;-80
2022/01/16 10:30:07;;;;;;;;;;;4.30;99.90;;;;;;5101740;28;19908;-75
2022/01/16 10:32:33;;;;;;;;;;;;;;;;;;5101689;28;19934;-80
2022/01/16 10:34:59;;;;;;;;;;;;;;;;;;5083229;28;20328;-79
2022/01/16 10:37:30;;;;;;;;;;;4.40;99.90;;;;;;5102368;28;19923;-74
2022/01/16 10:39:56;;;;;;;;;;;;;;;;;;5101204;28;19912;-78
2022/01/16 10:42:23;;;;;;;;;;;;;;;;;;5097929;28;19919;-79
2022/01/16 10:44:48;;;;;;;;;;;;;;;;;;5081311;28;20257;-78
2022/01/16 10:47:14;;;;;;;;;;;;;;;;;;5099275;28;19919;-76
2022/01/16 10:49:40;;;;;;;;;;;;;;;;;;5098018;28;19912;-77
2022/01/16 10:52:06;;;;;;;;;;;;;;;;;;5099248;28;19912;-75
2022/01/16 10:54:33;;;;;;;;;;;4.60;99.90;;;;;;5098858;28;19911;-73
2022/01/16 10:56:59;;;;;;;;;;;;;;;;;;5097901;28;20018;-78
2022/01/16 10:59:25;;;;;;;;;;;;;;;;;;5098954;28;20454;-74
2022/01/16 11:01:51;;;;;;;;;;;;;;;;;;5099501;28;19915;-74
2022/01/16 11:04:17;;;;;;;;;;;;;;;;;;5109360;28;19947;-82
2022/01/16 11:06:42;;;;;;;;;;;;;;;;;;5110098;28;20035;-78
2022/01/16 11:09:08;;;;;;;;;;;4.70;99.90;;;;;;5107683;28;19927;-77
2022/01/16 11:11:34;;;;;;;;;;;;;;;;;;5097996;28;19964;-77
2022/01/16 11:14:04;;;;;;;;;;;4.70;99.90;;;;;;5110309;28;20272;-75
2022/01/16 11:16:30;;;;;;;;;;;;;;;;;;5091044;28;19948;-74
2022/01/16 11:18:55;;;;;;;;;;;;;;;;;;5110143;28;19968;-74
2022/01/16 11:21:32;;;;;;;;;;;;;;;;;;5109599;28;20271;-75
2022/01/16 11:24:23;;;;;;;;;;;;;;;;;;5094155;28;19916;-74
2022/01/16 11:26:48;;;;;;;;;;;;;;;;;;5088927;28;19908;-74
2022/01/16 11:29:14;;;;;;;;;;;;;;;;;;5071305;28;19912;-74
2022/01/16 11:31:43;;;;;;;;;;;;;;;;;;5089503;28;19912;-76
2022/01/16 11:34:09;;;;;;;;;;;4.80;99.90;;;;;;5089808;28;20015;-73
2022/01/16 11:36:35;;;;;;;;;;;;;;;;;;5089034;28;20336;-72
2022/01/16 11:39:01;;;;;;;;;;;;;;;;;;5070657;28;19934;-71
2022/01/16 11:41:32;;;;;;;;;;;;;;;;;;5094565;28;19991;-75
2022/01/16 11:43:58;;;;;;;;;;;;;;;;;;5110021;28;19951;-73
2022/01/16 11:46:24;;;;;;;;;;;;;;;;;;5109459;28;20347;-75
2022/01/16 11:48:51;;;;;;;;;;;;;;;;;;5091610;28;20329;-75
2022/01/16 11:51:17;;;;;;;;;;;;;;;;;;5091170;28;19908;-75
2022/01/16 11:53:42;;;;;;;;;;;;;;;;;;5110461;28;20358;-75
2022/01/16 11:56:08;;;;;;;;;;;;;;;;;;5091534;28;19964;-75
2022/01/16 11:58:34;;;;;;;;;;;;;;;;;;5109215;28;19942;-75
2022/01/16 12:01:00;;;;;;;;;;;4.70;99.90;;;;;;5113036;28;19954;-75
2022/01/16 12:03:26;;;;;;;;;;;;;;;;;;5112814;28;20317;-75
2022/01/16 12:05:55;;;;;;;;;;;;;;;;;;5113791;28;19911;-75
2022/01/16 12:08:22;;;;;;;;;;;;;;;;;;5113263;28;20222;-74
2022/01/16 12:10:50;;;;;;;;;;;;;;;;;;5113886;28;20368;-74
2022/01/16 12:13:15;;;;;;;;;;;;;;;;;;5113610;28;19919;-75
2022/01/16 12:15:41;;;;;;;;;;;;;;;;;;5094300;28;19908;-75
2022/01/16 12:18:07;;;;;;;;;;;;;;;;;;5095149;28;19920;-75
2022/01/16 12:20:33;;;;;;;;;;;;;;;;;;5113036;28;19984;-74
2022/01/16 12:22:59;;;;;;;;;;;;;;;;;;5113568;28;19912;-75
2022/01/16 12:25:25;;;;;;;;;;;;;;;;;;5112956;28;19912;-74
2022/01/16 12:27:51;;;;;;;;;;;;;;;;;;5113039;28;20065;-74
2022/01/16 12:30:17;;;;;;;;;;;;;;;;;;5095077;28;19934;-75
2022/01/16 12:32:55;;;;;;;;;;;4.70;99.90;;;;;;5094408;28;19916;-74
2022/01/16 12:35:20;;;;;;;;;;;;;;;;;;5112788;28;19915;-74
2022/01/16 12:37:46;;;;;;;;;;;;;;;;;;5094540;28;19935;-74
2022/01/16 12:40:12;;;;;;;;;;;;;;;;;;5094447;28;20015;-74
2022/01/16 12:42:38;;;;;;;;;;;;;;;;;;5112421;28;19907;-74
2022/01/16 12:45:04;;;;;;;;;;;;;;;;;;5113150;28;19919;-75
2022/01/16 12:47:30;;;;;;;;;;;;;;;;;;5094079;28;19911;-72
2022/01/16 12:49:56;;;;;;;;;;;;;;;;;;5113660;28;20009;-72
2022/01/16 12:52:21;;;;;;;;;;;4.70;99.90;;;;;;5095738;28;19908;-71
2022/01/16 12:54:50;;;;;;;;;;;4.80;99.90;;;;;;5116059;28;19908;-72
2022/01/16 12:57:16;;;;;;;;;;;;;;;;;;5116341;28;19947;-72
2022/01/16 12:59:42;;;;;;;;;;;4.70;99.90;;;;;;5097293;28;19967;-72
2022/01/16 13:02:08;;;;;;;;;;;4.70;99.90;;;;;;5097099;28;20010;-72
2022/01/16 13:04:35;;;;;;;;;;;4.70;99.90;;;;;;5076516;28;19955;-74
2022/01/16 13:07:05;;;;;;;;;;;4.70;99.90;;;;;;5095229;28;19908;-74
2022/01/16 13:09:31;;;;;;;;;;;4.70;99.90;;;;;;5076812;28;19991;-74
2022/01/16 13:11:58;;;;;;;;;;;;;;;;;;5100922;28;19935;-74
2022/01/16 13:14:25;;;;;;;;;;;4.60;99.90;;;;;;5115494;28;20020;-74
2022/01/16 13:16:55;;;;;;;;;;;4.60;99.90;;;;;;5115985;28;20348;-74
2022/01/16 13:19:24;;;;;;;;;;;4.60;99.90;;;;;;5115986;28;19916;-74
2022/01/16 13:22:04;;;;;;;;;;;4.70;99.90;;;;;;5116037;28;19914;-75
2022/01/16 13:24:34;;;;;;;;;;;4.70;99.90;;;;;;5115260;28;19907;-74
2022/01/16 13:27:00;;;;;;;;;;;4.70;99.90;;;;;;5116015;28;20360;-75
2022/01/16 13:29:26;;;;;;;;;;;4.70;99.90;;;;;;5114884;28;19908;-74
2022/01/16 13:31:52;;;;;;;;;;;4.60;99.90;;;;;;5115697;28;19915;-74
2022/01/16 13:34:18;;;;;;;;;;;4.70;99.90;;;;;;5097407;28;20321;-74
2022/01/16 13:36:54;;;;;;;;;;;4.70;99.90;;;;;;5115024;28;19912;-74
2022/01/16 13:39:56;;;;;;;;;;;4.60;99.90;;;;;;5115488;28;19930;-75
2022/01/16 13:42:49;;;;;;;;;;;4.60;99.90;;;;;;5012801;28;19957;-72
2022/01/16 13:45:25;;;;;;;;;;;4.70;99.90;;;;;;5092682;28;19951;-72
2022/01/16 13:48:13;;;;;;;;;;;4.70;99.90;;;;;;5094969;28;19916;-73
2022/01/16 13:50:42;;;;;;;;;;;4.60;99.90;;;;;;5094553;28;20393;-73
2022/01/16 13:53:09;;;;;;;;;;;4.60;99.90;;;;;;5094866;28;19908;-75
2022/01/16 13:55:35;;;;;;;;;;;;;;;;;;5076159;28;20249;-73
2022/01/16 13:58:11;;;;;;;;;;;4.50;99.90;;;;;;5094938;28;19924;-72
2022/01/16 14:00:37;;;;;;;;;;;4.60;99.90;;;;;;5093905;28;19908;-73
2022/01/16 14:03:16;;;;;;;;;;;4.50;99.90;;;;;;5094475;28;20390;-73
2022/01/16 14:05:46;;;;;;;;;;;4.50;99.90;;;;;;5094721;28;19912;-72
2022/01/16 14:08:16;;;;;;;;;;;4.50;99.90;;;;;;5094699;28;19916;-72
2022/01/16 14:10:41;;;;;;;;;;;4.40;99.90;;;;;;5075672;28;19908;-73
2022/01/16 14:13:10;;;;;;;;;;;4.30;99.90;;;;;;5107344;28;19907;-73
2022/01/16 14:15:36;;;;;;;;;;;4.30;99.90;;;;;;5114202;28;20384;-72
2022/01/16 14:18:08;;;;;;;;;;;4.30;99.90;;;;;;5114798;28;20384;-73
2022/01/16 14:20:49;;;;;;;;;;;4.30;99.90;;;;;;5113736;28;20343;-73
2022/01/16 14:23:15;;;;;;;;;;;;;;;;;;5094378;28;19912;-73
2022/01/16 14:25:40;;;;;;;;;;;4.30;99.90;;;;;;5112111;28;19961;-73
2022/01/16 14:28:11;;;;;;;;;;;4.20;99.90;;;;;;5113702;28;19953;-73
2022/01/16 14:30:36;;;;;;;;;;;4.20;99.90;;;;;;5114077;28;20408;-73
2022/01/16 14:33:02;;;;;;;;;;;4.20;99.90;;;;;;5114481;28;19911;-73
2022/01/16 14:35:28;;;;;;;;;;;;;;;;;;5113689;28;19960;-74
2022/01/16 14:37:53;;;;;;;;;;;4.20;99.90;;;;;;5114206;28;19930;-73
2022/01/16 14:40:19;;;;;;;;;;;4.20;99.90;;;;;;5114294;28;19934;-73
2022/01/16 14:42:47;;;;;;;;;;;4.20;99.90;;;;;;5113599;28;19915;-72
2022/01/16 14:45:12;;;;;;;;;;;4.20;99.90;;;;;;5114289;28;19915;-73
2022/01/16 14:47:39;;;;;;;;;;;;;;;;;;5095413;28;19908;-73
2022/01/16 14:50:06;;;;;;;;;;;4.20;99.90;;;;;;5114243;28;19908;-73
2022/01/16 14:52:31;;;;;;;;;;;4.30;99.90;;;;;;5113335;28;19999;-73
2022/01/16 14:54:57;;;;;;;;;;;4.30;99.90;;;;;;5114029;28;19992;-73
2022/01/16 14:57:23;;;;;;;;;;;4.30;99.90;;;;;;5114005;28;19912;-72
2022/01/16 14:59:50;;;;;;;;;;;4.20;99.90;;;;;;5113033;28;19940;-73
2022/01/16 15:02:17;;;;;;;;;;;4.30;99.90;;;;;;5113978;28;19915;-73
2022/01/16 15:04:42;;;;;;;;;;;4.30;99.90;;;;;;5113304;28;20003;-73
2022/01/16 15:07:09;;;;;;;;;;;4.30;99.90;;;;;;5113591;28;20349;-73
2022/01/16 15:09:34;;;;;;;;;;;;;;;;;;5112926;28;19915;-73
2022/01/16 15:12:00;;;;;;;;;;;4.30;99.90;;;;;;5113670;28;19907;-73
2022/01/16 15:14:25;;;;;;;;;;;4.30;99.90;;;;;;5113437;28;19946;-73
2022/01/16 15:16:55;;;;;;;;;;;4.30;99.90;;;;;;5112848;28;19907;-73
2022/01/16 15:19:21;;;;;;;;;;;4.30;99.90;;;;;;5113625;28;19915;-73
2022/01/16 15:21:51;;;;;;;;;;;4.30;99.90;;;;;;5113049;28;19908;-73
2022/01/16 15:24:16;;;;;;;;;;;4.30;99.90;;;;;;5113627;28;19954;-73
2022/01/16 15:26:42;;;;;;;;;;;;;;;;;;5109048;28;19944;-81
2022/01/16 15:29:11;;;;;;;;;;;4.20;99.90;;;;;;5101839;28;20434;-72
2022/01/16 15:31:36;;;;;;;;;;;4.20;99.90;;;;;;5102454;28;19910;-77
2022/01/16 15:34:02;;;;;;;;;;;;;;;;;;5101370;28;19912;-78
2022/01/16 15:36:30;;;;;;;;;;;4.10;99.90;;;;;;5101836;28;19956;-82
2022/01/16 15:38:55;;;;;;;;;;;4.10;99.90;;;;;;5102858;28;19920;-78
2022/01/16 15:41:21;;;;;;;;;;;4.10;99.90;;;;;;5101015;28;19946;-75
2022/01/16 15:43:47;;;;;;;;;;;4.00;99.90;;;;;;5102740;28;20297;-81
2022/01/16 15:46:14;;;;;;;;;;;4.00;99.90;;;;;;5082744;28;19911;-83
2022/01/16 15:48:39;;;;;;;;;;;4.10;99.90;;;;;;5084335;28;19904;-79
2022/01/16 15:51:05;;;;;;;;;;;4.10;99.90;;;;;;5101754;28;19970;-73
2022/01/16 15:53:31;;;;;;;;;;;4.10;99.90;;;;;;5082358;28;20239;-76
2022/01/16 15:55:56;;;;;;;;;;;4.10;99.90;;;;;;5102836;28;19944;-82
2022/01/16 15:58:22;;;;;;;;;;;;;;;;;;5101129;28;20344;-83
2022/01/16 16:00:48;;;;;;;;;;;4.10;99.90;;;;;;5088153;28;20300;-80
2022/01/16 16:03:14;;;;;;;;;;;4.10;99.90;;;;;;5105365;28;19907;-75
2022/01/16 16:05:40;;;;;;;;;;;4.10;99.90;;;;;;5082912;28;19904;-73
2022/01/16 16:08:05;;;;;;;;;;;;;;;;;;5082574;28;20280;-76
2022/01/16 16:10:31;;;;;;;;;;;4.20;99.90;;;;;;5083929;28;20339;-76
2022/01/16 16:12:57;;;;;;;;;;;4.00;99.90;;;;;;5101201;28;19904;-76
2022/01/16 16:15:23;;;;;;;;;;;4.10;99.90;;;;;;5085372;28;20015;-76
2022/01/16 16:17:49;;;;;;;;;;;4.10;99.90;;;;;;5099831;28;19904;-74
2022/01/16 16:20:16;;;;;;;;;;;;;;;;;;5100424;28;20397;-68
2022/01/16 16:22:42;;;;;;;;;;;4.80;99.90;;;;;;5072970;28;19951;-76
2022/01/16 16:25:08;;;;;;;;;;;;;;;;;;5071191;28;19955;-71
2022/01/16 16:27:34;;;;;;;;;;;;;;;;;;5089096;28;20356;-76
2022/01/16 16:29:59;;;;;;;;;;;;;;;;;;5089237;28;19904;-76
2022/01/16 16:32:25;;;;;;;;;;;;;;;;;;5090725;28;19905;-73
2022/01/16 16:34:51;;;;;;;;;;;;;;;;;;5091765;28;20650;-79
2022/01/16 16:37:18;;;;;;;;;;;4.10;99.90;;;;;;5101457;28;19908;-80
2022/01/16 16:39:45;;;;;;;;;;;4.10;99.90;;;;;;5101082;28;19924;-80
2022/01/16 16:42:12;;;;;;;;;;;;;;;;;;5101548;28;19958;-79
2022/01/16 16:44:38;;;;;;;;;;;4.10;99.90;;;;;;5084839;28;20292;-79
2022/01/16 16:47:05;;;;;;;;;;;4.20;99.90;;;;;;5115892;28;19904;-79
2022/01/16 16:49:31;;;;;;;;;;;4.10;99.90;;;;;;5098310;28;19903;-79
2022/01/16 16:51:57;;;;;;;;;;;4.10;99.90;;;;;;5115921;28;19903;-79
2022/01/16 16:54:23;;;;;;;;;;;;;;;;;;5098124;28;19915;-79
2022/01/16 16:56:48;;;;;;;;;;;4.10;99.90;;;;;;5115892;28;19949;-79
2022/01/16 16:59:14;;;;;;;;;;;4.20;99.90;;;;;;5116373;28;19912;-79
2022/01/16 17:01:40;;;;;;;;;;;4.10;99.90;;;;;;5115823;28;19904;-79
2022/01/16 17:04:05;;;;;;;;;;;4.10;99.90;;;;;;5116805;28;19904;-79
2022/01/16 17:06:31;;;;;;;;;;;;;;;;;;5098155;28;20292;-79
2022/01/16 17:08:57;;;;;;;;;;;4.10;99.90;;;;;;5096938;28;19911;-79
2022/01/16 17:11:22;;;;;;;;;;;4.10;99.90;;;;;;5116279;28;20003;-80
2022/01/16 17:13:49;;;;;;;;;;;4.10;99.90;;;;;;5115359;28;19910;-80
2022/01/16 17:16:15;;;;;;;;;;;4.20;99.90;;;;;;5115944;28;19908;-80
2022/01/16 17:18:41;;;;;;;;;;;4.20;99.90;;;;;;5115441;28;19919;-80
2022/01/16 17:21:07;;;;;;;;;;;4.20;99.90;;;;;;5097722;28;19903;-80
2022/01/16 17:23:32;;;;;;;;;;;4.10;99.90;;;;;;5116014;28;19951;-80
2022/01/16 17:25:58;;;;;;;;;;;4.20;99.90;;;;;;5115339;28;19927;-80
2022/01/16 17:28:23;;;;;;;;;;;4.20;99.90;;;;;;5115651;28;19910;-80
2022/01/16 17:30:49;;;;;;;;;;;4.20;99.90;;;;;;5115286;28;20348;-81
2022/01/16 17:33:15;;;;;;;;;;;4.30;99.90;;;;;;5111571;28;19908;-81
2022/01/16 17:35:41;;;;;;;;;;;4.20;99.90;;;;;;5113664;28;19911;-81
2022/01/16 17:38:07;;;;;;;;;;;4.20;99.90;;;;;;5115472;28;20383;-81
2022/01/16 17:40:32;;;;;;;;;;;4.20;99.90;;;;;;5115296;28;19907;-79
2022/01/16 17:42:58;;;;;;;;;;;4.30;99.90;;;;;;5115160;28;20251;-80
2022/01/16 17:45:23;;;;;;;;;;;4.30;99.90;;;;;;5115117;28;20351;-83
2022/01/16 17:47:49;;;;;;;;;;;4.30;99.90;;;;;;5114864;28;19908;-80
2022/01/16 17:50:15;;;;;;;;;;;4.30;99.90;;;;;;5114806;28;19910;-73
2022/01/16 17:52:40;;;;;;;;;;;4.30;99.90;;;;;;5114837;28;19903;-79
2022/01/16 17:55:06;;;;;;;;;;;4.30;99.90;;;;;;5115364;28;19926;-82
2022/01/16 17:57:32;;;;;;;;;;;4.20;99.90;;;;;;5096961;28;19926;-83
2022/01/16 17:59:57;;;;;;;;;;;4.30;99.90;;;;;;5096336;28;19916;-82
2022/01/16 18:02:23;;;;;;;;;;;4.20;99.90;;;;;;5115243;28;19908;-77
2022/01/16 18:04:49;;;;;;;;;;;4.20;99.90;;;;;;5114498;28;19972;-75
2022/01/16 18:07:14;;;;;;;;;;;4.20;99.90;;;;;;5115048;28;20274;-80
2022/01/16 18:09:40;;;;;;;;;;;4.20;99.90;;;;;;5096198;28;19911;-81
2022/01/16 18:12:06;;;;;;;;;;;4.20;99.90;;;;;;5114644;28;19929;-83
2022/01/16 18:14:31;;;;;;;;;;;4.20;99.90;;;;;;5114844;28;19910;-77
2022/01/16 18:16:57;;;;;;;;;;;4.20;99.90;;;;;;5114024;28;20247;-75
2022/01/16 18:19:22;;;;;;;;;;;4.20;99.90;;;;;;5114820;28;19915;-75
2022/01/16 18:21:48;;;;;;;;;;;4.20;99.90;;;;;;5114206;28;19904;-72
2022/01/16 18:24:16;;;;;;;;;;;4.20;99.90;;;;;;5114855;28;19951;-82
2022/01/16 18:26:42;;;;;;;;;;;4.10;99.90;;;;;;5114135;28;19904;-81
2022/01/16 18:29:08;;;;;;;;;;;4.20;99.90;;;;;;5114668;28;20247;-82
2022/01/16 18:31:35;;;;;;;;;;;4.10;99.90;;;;;;5114604;28;19914;-80
2022/01/16 18:34:04;;;;;;;;;;;4.10;99.90;;;;;;5113954;28;19904;-79
2022/01/16 18:36:30;;;;;;;;;;;4.10;99.90;;;;;;5114219;28;19904;-80
2022/01/16 18:38:55;;;;;;;;;;;4.20;99.90;;;;;;5113784;28;19919;-79
2022/01/16 18:41:23;;;;;;;;;;;;;;;;;;5114138;28;19903;-80
2022/01/16 18:43:49;;;;;;;;;;;4.10;99.90;;;;;;5113668;28;19908;-79
2022/01/16 18:46:22;;;;;;;;;;;4.20;99.90;;;;;;5114400;28;19930;-81
2022/01/16 18:48:54;;;;;;;;;;;4.10;99.90;;;;;;5113937;28;19904;-81